sensor_id;sensor_type;location;lat;lon;timestamp;temperature;humidity
14397;DHT22;50653;47.810;13.022;2023-05-10T00:00:24;15.90;99.90
14397;DHT22;50653;47.810;13.022;2023-05-10T00:02:49;15.90;99.90
14397;DHT22;50653;47.810;13.022;2023-05-10T00:05:15;15.90;99.90
14397;DHT22;50653;47.810;13.022;2023-05-10T00:07:41;15.90;99.90
14397;DHT22;50653;47.810;13.022;2023-05-10T00:10:10;15.70;99.90
14397;DHT22;50653;47.810;13.022;2023-05-10T00:12:36;15.70;99.90
14397;DHT22;50653;47.810;13.022;2023-05-10T00:15:02;15.60;99.90
14397;DHT22;50653;47.810;13.022;2023-05-10T00:17:28;15.70;99.90
14397;DHT22;50653;47.810;13.022;2023-05-10T00:19:54;15.60;99.90
14397;DHT22;50653;47.810;13.022;2023-05-10T00:22:19;15.50;99.90
14397;DHT22;50653;47.810;13.022;2023-05-10T00:24:45;15.50;99.90
14397;DHT22;50653;47.810;13.022;2023-05-10T00:27:11;15.70;99.90
14397;DHT22;50653;47.810;13.022;2023-05-10T00:29:36;15.80;99.90
14397;DHT22;50653;47.810;13.022;2023-05-10T00:32:02;15.90;99.90
14397;DHT22;50653;47.810;13.022;2023-05-10T00:34:28;15.90;99.90
14397;DHT22;50653;47.810;13.022;2023-05-10T00:36:53;16.10;99.90
14397;DHT22;50653;47.810;13.022;2023-05-10T00:39:19;16.10;99.90
14397;DHT22;50653;47.810;13.022;2023-05-10T00:41:45;16.30;99.90
14397;DHT22;50653;47.810;13.022;2023-05-10T00:44:11;16.10;99.90
14397;DHT22;50653;47.810;13.022;2023-05-10T00:46:37;16.20;99.90
14397;DHT22;50653;47.810;13.022;2023-05-10T00:49:02;16.00;99.90
14397;DHT22;50653;47.810;13.022;2023-05-10T00:51:29;16.10;99.90
14397;DHT22;50653;47.810;13.022;2023-05-10T00:53:54;16.20;99.90
14397;DHT22;50653;47.810;13.022;2023-05-10T00:56:21;16.10;99.90
14397;DHT22;50653;47.810;13.022;2023-05-10T00:58:48;16.10;99.90
14397;DHT22;50653;47.810;13.022;2023-05-10T01:01:14;16.00;99.90
14397;DHT22;50653;47.810;13.022;2023-05-10T01:03:40;16.00;99.90
14397;DHT22;50653;47.810;13.022;2023-05-10T01:06:07;16.10;99.90
14397;DHT22;50653;47.810;13.022;2023-05-10T01:08:33;16.10;99.90
14397;DHT22;50653;47.810;13.022;2023-05-10T01:10:59;16.10;99.90
14397;DHT22;50653;47.810;13.022;2023-05-10T01:13:37;16.10;99.90
14397;DHT22;50653;47.810;13.022;2023-05-10T01:16:04;16.20;99.90
14397;DHT22;50653;47.810;13.022;2023-05-10T01:18:34;16.10;99.90
14397;DHT22;50653;47.810;13.022;2023-05-10T01:21:35;16.10;99.90
14397;DHT22;50653;47.810;13.022;2023-05-10T01:24:27;16.10;99.90
14397;DHT22;50653;47.810;13.022;2023-05-10T01:27:03;16.20;99.90
14397;DHT22;50653;47.810;13.022;2023-05-10T01:32:43;15.70;99.90
14397;DHT22;50653;47.810;13.022;2023-05-10T01:38:18;16.10;99.90
14397;DHT22;50653;47.810;13.022;2023-05-10T01:43:52;15.80;99.90
14397;DHT22;50653;47.810;13.022;2023-05-10T01:46:24;16.00;99.90
14397;DHT22;50653;47.810;13.022;2023-05-10T01:48:55;16.20;99.90
14397;DHT22;50653;47.810;13.022;2023-05-10T01:51:26;16.10;99.90
14397;DHT22;50653;47.810;13.022;2023-05-10T01:54:01;16.10;99.90
14397;DHT22;50653;47.810;13.022;2023-05-10T01:56:29;16.10;99.90
14397;DHT22;50653;47.810;13.022;2023-05-10T01:58:57;16.00;99.90
14397;DHT22;50653;47.810;13.022;2023-05-10T02:01:25;16.00;99.90
14397;DHT22;50653;47.810;13.022;2023-05-10T02:03:52;16.10;99.90
14397;DHT22;50653;47.810;13.022;2023-05-10T02:06:20;15.80;99.90
14397;DHT22;50653;47.810;13.022;2023-05-10T02:08:49;15.70;99.90
14397;DHT22;50653;47.810;13.022;2023-05-10T02:11:17;15.90;99.90
14397;DHT22;50653;47.810;13.022;2023-05-10T02:13:44;16.10;99.90
14397;DHT22;50653;47.810;13.022;2023-05-10T02:16:13;16.10;99.90
14397;DHT22;50653;47.810;13.022;2023-05-10T02:18:40;16.00;99.90
14397;DHT22;50653;47.810;13.022;2023-05-10T02:21:08;16.10;99.90
14397;DHT22;50653;47.810;13.022;2023-05-10T02:23:34;16.00;99.90
14397;DHT22;50653;47.810;13.022;2023-05-10T02:26:02;16.00;99.90
14397;DHT22;50653;47.810;13.022;2023-05-10T02:28:28;16.10;99.90
14397;DHT22;50653;47.810;13.022;2023-05-10T02:30:55;16.20;99.90
14397;DHT22;50653;47.810;13.022;2023-05-10T02:33:21;16.30;99.90
14397;DHT22;50653;47.810;13.022;2023-05-10T02:35:48;16.30;99.90
14397;DHT22;50653;47.810;13.022;2023-05-10T02:38:14;16.10;99.90
14397;DHT22;50653;47.810;13.022;2023-05-10T02:40:41;16.00;99.90
14397;DHT22;50653;47.810;13.022;2023-05-10T02:43:12;16.00;99.90
14397;DHT22;50653;47.810;13.022;2023-05-10T02:45:38;16.20;99.90
14397;DHT22;50653;47.810;13.022;2023-05-10T02:48:05;16.10;99.90
14397;DHT22;50653;47.810;13.022;2023-05-10T02:50:33;16.20;99.90
14397;DHT22;50653;47.810;13.022;2023-05-10T02:53:01;16.20;99.90
14397;DHT22;50653;47.810;13.022;2023-05-10T02:55:32;16.20;99.90
14397;DHT22;50653;47.810;13.022;2023-05-10T02:58:00;16.30;99.90
14397;DHT22;50653;47.810;13.022;2023-05-10T03:00:27;16.20;99.90
14397;DHT22;50653;47.810;13.022;2023-05-10T03:02:53;16.30;99.90
14397;DHT22;50653;47.810;13.022;2023-05-10T03:05:19;16.20;99.90
14397;DHT22;50653;47.810;13.022;2023-05-10T03:07:46;16.30;99.90
14397;DHT22;50653;47.810;13.022;2023-05-10T03:10:13;16.20;99.90
14397;DHT22;50653;47.810;13.022;2023-05-10T03:13:05;16.20;99.90
14397;DHT22;50653;47.810;13.022;2023-05-10T03:15:47;16.10;99.90
14397;DHT22;50653;47.810;13.022;2023-05-10T03:18:22;16.10;99.90
14397;DHT22;50653;47.810;13.022;2023-05-10T03:20:50;16.10;99.90
14397;DHT22;50653;47.810;13.022;2023-05-10T03:23:26;16.20;99.90
14397;DHT22;50653;47.810;13.022;2023-05-10T03:25:53;16.20;99.90
14397;DHT22;50653;47.810;13.022;2023-05-10T03:28:20;16.20;99.90
14397;DHT22;50653;47.810;13.022;2023-05-10T03:30:47;16.10;99.90
14397;DHT22;50653;47.810;13.022;2023-05-10T06:11:11;15.50;99.90
14397;DHT22;50653;47.810;13.022;2023-05-10T06:13:37;15.70;99.90
14397;DHT22;50653;47.810;13.022;2023-05-10T06:16:03;15.70;99.90
14397;DHT22;50653;47.810;13.022;2023-05-10T06:18:28;15.60;99.90
14397;DHT22;50653;47.810;13.022;2023-05-10T06:20:54;15.40;99.90
14397;DHT22;50653;47.810;13.022;2023-05-10T06:23:20;15.20;99.90
14397;DHT22;50653;47.810;13.022;2023-05-10T06:25:45;15.10;99.90
14397;DHT22;50653;47.810;13.022;2023-05-10T06:28:11;15.10;99.90
14397;DHT22;50653;47.810;13.022;2023-05-10T06:30:36;15.20;99.90
14397;DHT22;50653;47.810;13.022;2023-05-10T06:33:02;15.30;99.90
14397;DHT22;50653;47.810;13.022;2023-05-10T06:35:28;15.20;99.90
14397;DHT22;50653;47.810;13.022;2023-05-10T06:37:54;15.20;99.90
14397;DHT22;50653;47.810;13.022;2023-05-10T06:40:20;15.30;99.90
14397;DHT22;50653;47.810;13.022;2023-05-10T06:42:47;15.30;99.90
14397;DHT22;50653;47.810;13.022;2023-05-10T06:45:13;15.30;99.90
14397;DHT22;50653;47.810;13.022;2023-05-10T06:47:40;15.30;99.90
14397;DHT22;50653;47.810;13.022;2023-05-10T06:50:10;15.40;99.90
14397;DHT22;50653;47.810;13.022;2023-05-10T06:52:37;15.30;99.90
14397;DHT22;50653;47.810;13.022;2023-05-10T06:55:03;15.40;99.90
14397;DHT22;50653;47.810;13.022;2023-05-10T06:57:29;15.60;99.90
14397;DHT22;50653;47.810;13.022;2023-05-10T06:59:55;15.50;99.90
14397;DHT22;50653;47.810;13.022;2023-05-10T07:02:23;15.20;99.90
14397;DHT22;50653;47.810;13.022;2023-05-10T07:04:49;15.20;99.90
14397;DHT22;50653;47.810;13.022;2023-05-10T07:07:15;15.20;99.90
14397;DHT22;50653;47.810;13.022;2023-05-10T07:09:41;15.10;99.90
14397;DHT22;50653;47.810;13.022;2023-05-10T07:12:07;15.20;99.90
14397;DHT22;50653;47.810;13.022;2023-05-10T07:14:33;15.30;99.90
14397;DHT22;50653;47.810;13.022;2023-05-10T07:16:58;15.10;99.90
14397;DHT22;50653;47.810;13.022;2023-05-10T07:19:24;14.90;99.90
14397;DHT22;50653;47.810;13.022;2023-05-10T07:21:49;14.70;99.90
14397;DHT22;50653;47.810;13.022;2023-05-10T07:24:16;14.90;99.90
14397;DHT22;50653;47.810;13.022;2023-05-10T07:26:41;15.10;99.90
14397;DHT22;50653;47.810;13.022;2023-05-10T07:29:07;14.90;99.90
14397;DHT22;50653;47.810;13.022;2023-05-10T07:31:33;15.00;99.90
14397;DHT22;50653;47.810;13.022;2023-05-10T07:33:58;15.20;99.90
14397;DHT22;50653;47.810;13.022;2023-05-10T07:36:24;14.90;99.90
14397;DHT22;50653;47.810;13.022;2023-05-10T07:38:50;14.90;99.90
14397;DHT22;50653;47.810;13.022;2023-05-10T07:41:16;14.90;99.90
14397;DHT22;50653;47.810;13.022;2023-05-10T07:43:41;14.80;99.90
14397;DHT22;50653;47.810;13.022;2023-05-10T07:46:07;14.70;99.90
14397;DHT22;50653;47.810;13.022;2023-05-10T07:48:36;14.90;99.90
14397;DHT22;50653;47.810;13.022;2023-05-10T07:51:02;15.10;99.90
14397;DHT22;50653;47.810;13.022;2023-05-10T07:53:28;15.20;99.90
14397;DHT22;50653;47.810;13.022;2023-05-10T07:55:57;15.20;99.90
14397;DHT22;50653;47.810;13.022;2023-05-10T07:58:24;15.10;99.90
14397;DHT22;50653;47.810;13.022;2023-05-10T08:00:49;15.00;99.90
14397;DHT22;50653;47.810;13.022;2023-05-10T08:03:15;14.70;99.90
14397;DHT22;50653;47.810;13.022;2023-05-10T08:05:41;14.90;99.90
14397;DHT22;50653;47.810;13.022;2023-05-10T08:08:07;14.80;99.90
14397;DHT22;50653;47.810;13.022;2023-05-10T08:10:32;14.60;99.90
14397;DHT22;50653;47.810;13.022;2023-05-10T08:12:58;14.80;99.90
14397;DHT22;50653;47.810;13.022;2023-05-10T08:15:24;15.00;99.90
14397;DHT22;50653;47.810;13.022;2023-05-10T08:17:51;15.00;99.90
14397;DHT22;50653;47.810;13.022;2023-05-10T08:20:17;15.00;99.90
14397;DHT22;50653;47.810;13.022;2023-05-10T08:22:45;15.00;99.90
14397;DHT22;50653;47.810;13.022;2023-05-10T08:25:11;14.80;99.90
14397;DHT22;50653;47.810;13.022;2023-05-10T08:27:37;14.80;99.90
14397;DHT22;50653;47.810;13.022;2023-05-10T08:30:03;15.00;99.90
14397;DHT22;50653;47.810;13.022;2023-05-10T08:32:28;15.20;99.90
14397;DHT22;50653;47.810;13.022;2023-05-10T08:34:54;15.30;99.90
14397;DHT22;50653;47.810;13.022;2023-05-10T08:37:23;15.30;99.90
14397;DHT22;50653;47.810;13.022;2023-05-10T08:39:49;15.20;99.90
14397;DHT22;50653;47.810;13.022;2023-05-10T08:42:19;15.40;99.90
14397;DHT22;50653;47.810;13.022;2023-05-10T08:44:48;15.30;99.90
14397;DHT22;50653;47.810;13.022;2023-05-10T08:47:16;15.30;99.90
14397;DHT22;50653;47.810;13.022;2023-05-10T08:49:44;15.30;99.90
14397;DHT22;50653;47.810;13.022;2023-05-10T08:52:14;15.20;99.90
14397;DHT22;50653;47.810;13.022;2023-05-10T08:54:41;15.20;99.90
14397;DHT22;50653;47.810;13.022;2023-05-10T08:57:06;14.90;99.90
14397;DHT22;50653;47.810;13.022;2023-05-10T08:59:32;15.10;99.90
14397;DHT22;50653;47.810;13.022;2023-05-10T09:01:59;15.20;99.90
14397;DHT22;50653;47.810;13.022;2023-05-10T09:04:25;15.30;99.90
14397;DHT22;50653;47.810;13.022;2023-05-10T09:06:51;15.10;99.90
14397;DHT22;50653;47.810;13.022;2023-05-10T09:09:17;15.10;99.90
14397;DHT22;50653;47.810;13.022;2023-05-10T09:11:43;15.20;99.90
14397;DHT22;50653;47.810;13.022;2023-05-10T09:14:10;15.20;99.90
14397;DHT22;50653;47.810;13.022;2023-05-10T09:16:37;15.20;99.90
14397;DHT22;50653;47.810;13.022;2023-05-10T09:19:03;15.30;99.90
14397;DHT22;50653;47.810;13.022;2023-05-10T09:21:30;15.40;99.90
14397;DHT22;50653;47.810;13.022;2023-05-10T09:23:56;15.30;99.90
14397;DHT22;50653;47.810;13.022;2023-05-10T09:26:22;15.40;99.90
14397;DHT22;50653;47.810;13.022;2023-05-10T09:28:53;15.40;99.90
14397;DHT22;50653;47.810;13.022;2023-05-10T09:31:19;15.40;99.90
14397;DHT22;50653;47.810;13.022;2023-05-10T09:33:46;15.40;99.90
14397;DHT22;50653;47.810;13.022;2023-05-10T09:36:12;15.50;99.90
14397;DHT22;50653;47.810;13.022;2023-05-10T09:38:49;15.50;99.90
14397;DHT22;50653;47.810;13.022;2023-05-10T09:41:21;15.50;99.90
14397;DHT22;50653;47.810;13.022;2023-05-10T09:43:47;15.60;99.90
14397;DHT22;50653;47.810;13.022;2023-05-10T09:46:14;15.40;99.90
14397;DHT22;50653;47.810;13.022;2023-05-10T09:48:46;15.40;99.90
14397;DHT22;50653;47.810;13.022;2023-05-10T09:51:22;15.50;99.90
14397;DHT22;50653;47.810;13.022;2023-05-10T09:53:48;15.60;99.90
14397;DHT22;50653;47.810;13.022;2023-05-10T09:56:34;15.50;99.90
14397;DHT22;50653;47.810;13.022;2023-05-10T09:59:05;15.60;99.90
14397;DHT22;50653;47.810;13.022;2023-05-10T10:01:31;15.70;99.90
14397;DHT22;50653;47.810;13.022;2023-05-10T10:03:57;15.80;99.90
14397;DHT22;50653;47.810;13.022;2023-05-10T10:06:24;15.80;99.90
14397;DHT22;50653;47.810;13.022;2023-05-10T10:08:51;15.80;99.90
14397;DHT22;50653;47.810;13.022;2023-05-10T10:11:17;15.80;99.90
14397;DHT22;50653;47.810;13.022;2023-05-10T10:13:43;15.80;99.90
14397;DHT22;50653;47.810;13.022;2023-05-10T10:16:09;15.90;99.90
14397;DHT22;50653;47.810;13.022;2023-05-10T10:18:36;15.80;99.90
14397;DHT22;50653;47.810;13.022;2023-05-10T10:21:08;15.70;99.90
14397;DHT22;50653;47.810;13.022;2023-05-10T10:23:37;15.80;99.90
14397;DHT22;50653;47.810;13.022;2023-05-10T10:26:03;15.80;99.90
14397;DHT22;50653;47.810;13.022;2023-05-10T10:30:55;15.90;99.90
14397;DHT22;50653;47.810;13.022;2023-05-10T10:33:33;16.00;99.90
14397;DHT22;50653;47.810;13.022;2023-05-10T10:36:03;16.10;99.90
14397;DHT22;50653;47.810;13.022;2023-05-10T10:41:39;16.10;99.90
14397;DHT22;50653;47.810;13.022;2023-05-10T10:44:35;16.20;99.90
14397;DHT22;50653;47.810;13.022;2023-05-10T10:52:24;16.20;99.90
14397;DHT22;50653;47.810;13.022;2023-05-10T10:57:33;16.30;99.90
14397;DHT22;50653;47.810;13.022;2023-05-10T11:00:21;16.40;99.90
14397;DHT22;50653;47.810;13.022;2023-05-10T11:03:08;16.40;99.90
14397;DHT22;50653;47.810;13.022;2023-05-10T11:05:41;16.40;99.90
14397;DHT22;50653;47.810;13.022;2023-05-10T11:08:26;16.40;99.90
14397;DHT22;50653;47.810;13.022;2023-05-10T11:16:19;16.50;99.90
14397;DHT22;50653;47.810;13.022;2023-05-10T11:19:07;16.40;99.90
14397;DHT22;50653;47.810;13.022;2023-05-10T11:21:51;16.60;99.90
14397;DHT22;50653;47.810;13.022;2023-05-10T11:24:22;16.70;99.90
14397;DHT22;50653;47.810;13.022;2023-05-10T11:26:53;16.80;99.90
14397;DHT22;50653;47.810;13.022;2023-05-10T11:29:19;16.70;99.90
14397;DHT22;50653;47.810;13.022;2023-05-10T11:31:46;16.70;99.90
14397;DHT22;50653;47.810;13.022;2023-05-10T11:34:33;16.80;99.90
14397;DHT22;50653;47.810;13.022;2023-05-10T11:36:59;16.90;99.90
14397;DHT22;50653;47.810;13.022;2023-05-10T11:39:30;16.50;99.90
14397;DHT22;50653;47.810;13.022;2023-05-10T11:41:56;16.70;99.90
14397;DHT22;50653;47.810;13.022;2023-05-10T11:44:22;16.60;99.90
14397;DHT22;50653;47.810;13.022;2023-05-10T11:46:49;16.70;99.90
14397;DHT22;50653;47.810;13.022;2023-05-10T11:49:14;16.90;99.90
14397;DHT22;50653;47.810;13.022;2023-05-10T11:51:40;16.70;99.90
14397;DHT22;50653;47.810;13.022;2023-05-10T11:54:09;16.80;99.90
14397;DHT22;50653;47.810;13.022;2023-05-10T11:56:37;17.00;99.90
14397;DHT22;50653;47.810;13.022;2023-05-10T11:59:03;16.90;99.90
14397;DHT22;50653;47.810;13.022;2023-05-10T12:01:30;17.00;99.90
14397;DHT22;50653;47.810;13.022;2023-05-10T12:03:57;17.10;99.90
14397;DHT22;50653;47.810;13.022;2023-05-10T12:06:27;17.20;99.90
14397;DHT22;50653;47.810;13.022;2023-05-10T12:08:54;17.20;99.90
14397;DHT22;50653;47.810;13.022;2023-05-10T12:11:20;17.20;99.90
14397;DHT22;50653;47.810;13.022;2023-05-10T12:13:49;17.30;99.90
14397;DHT22;50653;47.810;13.022;2023-05-10T12:16:20;17.40;99.90
14397;DHT22;50653;47.810;13.022;2023-05-10T12:18:50;16.90;99.90
14397;DHT22;50653;47.810;13.022;2023-05-10T12:21:17;17.10;99.90
14397;DHT22;50653;47.810;13.022;2023-05-10T12:23:45;17.30;99.90
14397;DHT22;50653;47.810;13.022;2023-05-10T12:26:11;17.20;99.90
14397;DHT22;50653;47.810;13.022;2023-05-10T12:28:38;17.30;99.90
14397;DHT22;50653;47.810;13.022;2023-05-10T12:31:05;17.40;99.90
14397;DHT22;50653;47.810;13.022;2023-05-10T12:33:39;17.50;99.90
14397;DHT22;50653;47.810;13.022;2023-05-10T12:36:05;17.40;99.90
14397;DHT22;50653;47.810;13.022;2023-05-10T12:38:37;17.50;99.90
14397;DHT22;50653;47.810;13.022;2023-05-10T12:41:13;17.60;99.90
14397;DHT22;50653;47.810;13.022;2023-05-10T12:43:39;17.60;99.90
14397;DHT22;50653;47.810;13.022;2023-05-10T12:46:09;17.50;99.90
14397;DHT22;50653;47.810;13.022;2023-05-10T12:48:37;17.60;99.90
14397;DHT22;50653;47.810;13.022;2023-05-10T12:51:03;17.60;99.90
14397;DHT22;50653;47.810;13.022;2023-05-10T12:53:29;17.70;99.90
14397;DHT22;50653;47.810;13.022;2023-05-10T12:55:55;17.70;99.90
14397;DHT22;50653;47.810;13.022;2023-05-10T12:58:20;17.60;99.90
14397;DHT22;50653;47.810;13.022;2023-05-10T13:00:46;17.60;99.90
14397;DHT22;50653;47.810;13.022;2023-05-10T13:03:12;17.60;99.90
14397;DHT22;50653;47.810;13.022;2023-05-10T13:05:38;17.70;99.90
14397;DHT22;50653;47.810;13.022;2023-05-10T13:08:04;17.60;99.90
14397;DHT22;50653;47.810;13.022;2023-05-10T13:10:30;17.60;99.90
14397;DHT22;50653;47.810;13.022;2023-05-10T13:12:57;17.60;99.90
14397;DHT22;50653;47.810;13.022;2023-05-10T13:15:23;17.40;99.90
14397;DHT22;50653;47.810;13.022;2023-05-10T13:17:49;17.50;99.90
14397;DHT22;50653;47.810;13.022;2023-05-10T13:20:15;17.60;99.90
14397;DHT22;50653;47.810;13.022;2023-05-10T13:22:42;17.70;99.90
14397;DHT22;50653;47.810;13.022;2023-05-10T13:25:08;17.70;99.90
14397;DHT22;50653;47.810;13.022;2023-05-10T13:27:34;17.70;99.90
14397;DHT22;50653;47.810;13.022;2023-05-10T13:29:59;17.70;99.90
14397;DHT22;50653;47.810;13.022;2023-05-10T13:32:26;17.70;99.90
14397;DHT22;50653;47.810;13.022;2023-05-10T13:34:52;17.40;99.90
14397;DHT22;50653;47.810;13.022;2023-05-10T13:37:17;17.30;99.90
14397;DHT22;50653;47.810;13.022;2023-05-10T13:39:43;17.30;99.90
14397;DHT22;50653;47.810;13.022;2023-05-10T13:42:08;17.50;99.90
14397;DHT22;50653;47.810;13.022;2023-05-10T13:44:34;17.60;99.90
14397;DHT22;50653;47.810;13.022;2023-05-10T13:47:01;17.60;99.90
14397;DHT22;50653;47.810;13.022;2023-05-10T13:49:27;17.20;99.90
14397;DHT22;50653;47.810;13.022;2023-05-10T13:51:52;17.30;99.90
14397;DHT22;50653;47.810;13.022;2023-05-10T13:54:18;17.30;99.90
14397;DHT22;50653;47.810;13.022;2023-05-10T13:56:45;17.30;99.90
14397;DHT22;50653;47.810;13.022;2023-05-10T13:59:12;17.20;99.90
14397;DHT22;50653;47.810;13.022;2023-05-10T14:01:39;16.90;99.90
14397;DHT22;50653;47.810;13.022;2023-05-10T14:04:06;17.10;99.90
14397;DHT22;50653;47.810;13.022;2023-05-10T14:06:35;16.70;99.90
14397;DHT22;50653;47.810;13.022;2023-05-10T14:09:02;16.60;99.90
14397;DHT22;50653;47.810;13.022;2023-05-10T14:11:28;16.30;99.90
14397;DHT22;50653;47.810;13.022;2023-05-10T14:13:53;15.60;99.90
14397;DHT22;50653;47.810;13.022;2023-05-10T14:16:19;15.30;99.90
14397;DHT22;50653;47.810;13.022;2023-05-10T14:18:45;15.00;99.90
14397;DHT22;50653;47.810;13.022;2023-05-10T14:21:11;14.80;99.90
14397;DHT22;50653;47.810;13.022;2023-05-10T14:23:37;14.90;99.90
14397;DHT22;50653;47.810;13.022;2023-05-10T14:26:03;14.90;99.90
14397;DHT22;50653;47.810;13.022;2023-05-10T14:28:28;14.90;99.90
14397;DHT22;50653;47.810;13.022;2023-05-10T14:30:54;14.90;99.90
14397;DHT22;50653;47.810;13.022;2023-05-10T14:33:20;15.00;99.90
14397;DHT22;50653;47.810;13.022;2023-05-10T14:35:46;15.10;99.90
14397;DHT22;50653;47.810;13.022;2023-05-10T14:38:13;15.20;99.90
14397;DHT22;50653;47.810;13.022;2023-05-10T14:40:39;15.10;99.90
14397;DHT22;50653;47.810;13.022;2023-05-10T14:43:04;15.10;99.90
14397;DHT22;50653;47.810;13.022;2023-05-10T14:45:30;15.30;99.90
14397;DHT22;50653;47.810;13.022;2023-05-10T14:47:57;15.20;99.90
14397;DHT22;50653;47.810;13.022;2023-05-10T14:50:23;15.20;99.90
14397;DHT22;50653;47.810;13.022;2023-05-10T14:52:48;15.20;99.90
14397;DHT22;50653;47.810;13.022;2023-05-10T14:55:14;15.10;99.90
14397;DHT22;50653;47.810;13.022;2023-05-10T14:57:40;14.70;99.90
14397;DHT22;50653;47.810;13.022;2023-05-10T15:00:06;14.70;99.90
14397;DHT22;50653;47.810;13.022;2023-05-10T15:02:32;15.00;99.90
14397;DHT22;50653;47.810;13.022;2023-05-10T15:04:58;14.80;99.90
14397;DHT22;50653;47.810;13.022;2023-05-10T15:07:23;14.50;99.90
14397;DHT22;50653;47.810;13.022;2023-05-10T15:09:52;14.80;99.90
14397;DHT22;50653;47.810;13.022;2023-05-10T15:12:18;14.90;99.90
14397;DHT22;50653;47.810;13.022;2023-05-10T15:14:44;14.70;99.90
14397;DHT22;50653;47.810;13.022;2023-05-10T15:17:10;14.70;99.90
14397;DHT22;50653;47.810;13.022;2023-05-10T15:19:36;14.80;99.90
14397;DHT22;50653;47.810;13.022;2023-05-10T15:22:02;14.80;99.90
14397;DHT22;50653;47.810;13.022;2023-05-10T15:24:28;14.70;99.90
14397;DHT22;50653;47.810;13.022;2023-05-10T15:26:54;14.90;99.90
14397;DHT22;50653;47.810;13.022;2023-05-10T15:29:20;14.50;99.90
14397;DHT22;50653;47.810;13.022;2023-05-10T15:31:50;14.60;99.90
14397;DHT22;50653;47.810;13.022;2023-05-10T15:34:17;14.80;99.90
14397;DHT22;50653;47.810;13.022;2023-05-10T15:36:43;14.90;99.90
14397;DHT22;50653;47.810;13.022;2023-05-10T15:39:09;15.00;99.90
14397;DHT22;50653;47.810;13.022;2023-05-10T15:41:35;15.10;99.90
14397;DHT22;50653;47.810;13.022;2023-05-10T15:44:01;15.30;99.90
14397;DHT22;50653;47.810;13.022;2023-05-10T15:46:28;15.10;99.90
14397;DHT22;50653;47.810;13.022;2023-05-10T15:48:54;14.90;99.90
14397;DHT22;50653;47.810;13.022;2023-05-10T15:51:20;14.80;99.90
14397;DHT22;50653;47.810;13.022;2023-05-10T15:53:46;14.90;99.90
14397;DHT22;50653;47.810;13.022;2023-05-10T15:56:12;14.80;99.90
14397;DHT22;50653;47.810;13.022;2023-05-10T15:58:39;14.90;99.90
14397;DHT22;50653;47.810;13.022;2023-05-10T16:01:04;15.00;99.90
14397;DHT22;50653;47.810;13.022;2023-05-10T16:03:31;15.00;99.90
14397;DHT22;50653;47.810;13.022;2023-05-10T16:05:57;15.00;99.90
14397;DHT22;50653;47.810;13.022;2023-05-10T16:08:23;14.90;99.90
14397;DHT22;50653;47.810;13.022;2023-05-10T16:10:50;14.80;99.90
14397;DHT22;50653;47.810;13.022;2023-05-10T16:13:17;14.90;99.90
14397;DHT22;50653;47.810;13.022;2023-05-10T16:15:43;14.80;99.90
14397;DHT22;50653;47.810;13.022;2023-05-10T16:18:09;15.00;99.90
14397;DHT22;50653;47.810;13.022;2023-05-10T16:20:35;15.00;99.90
14397;DHT22;50653;47.810;13.022;2023-05-10T16:23:03;14.70;99.90
14397;DHT22;50653;47.810;13.022;2023-05-10T16:25:29;14.50;99.90
14397;DHT22;50653;47.810;13.022;2023-05-10T16:27:54;14.70;99.90
14397;DHT22;50653;47.810;13.022;2023-05-10T16:30:20;14.40;99.90
14397;DHT22;50653;47.810;13.022;2023-05-10T16:32:45;14.70;99.90
14397;DHT22;50653;47.810;13.022;2023-05-10T16:35:11;14.20;99.90
14397;DHT22;50653;47.810;13.022;2023-05-10T16:37:37;14.10;99.90
14397;DHT22;50653;47.810;13.022;2023-05-10T16:40:03;14.50;99.90
14397;DHT22;50653;47.810;13.022;2023-05-10T16:42:29;14.50;99.90
14397;DHT22;50653;47.810;13.022;2023-05-10T16:44:55;14.70;99.90
14397;DHT22;50653;47.810;13.022;2023-05-10T16:47:20;14.60;99.90
14397;DHT22;50653;47.810;13.022;2023-05-10T16:49:46;14.30;99.90
14397;DHT22;50653;47.810;13.022;2023-05-10T16:52:12;14.10;99.90
14397;DHT22;50653;47.810;13.022;2023-05-10T16:54:38;14.40;99.90
14397;DHT22;50653;47.810;13.022;2023-05-10T16:57:03;14.70;99.90
14397;DHT22;50653;47.810;13.022;2023-05-10T16:59:29;14.70;99.90
14397;DHT22;50653;47.810;13.022;2023-05-10T17:01:55;14.50;99.90
14397;DHT22;50653;47.810;13.022;2023-05-10T17:04:20;14.10;99.90
14397;DHT22;50653;47.810;13.022;2023-05-10T17:06:46;13.90;99.90
14397;DHT22;50653;47.810;13.022;2023-05-10T17:09:12;13.90;99.90
14397;DHT22;50653;47.810;13.022;2023-05-10T17:11:38;14.00;99.90
14397;DHT22;50653;47.810;13.022;2023-05-10T17:14:03;13.70;99.90
14397;DHT22;50653;47.810;13.022;2023-05-10T17:16:29;13.80;99.90
14397;DHT22;50653;47.810;13.022;2023-05-10T17:18:55;14.00;99.90
14397;DHT22;50653;47.810;13.022;2023-05-10T17:21:21;14.00;99.90
14397;DHT22;50653;47.810;13.022;2023-05-10T17:23:46;14.10;99.90
14397;DHT22;50653;47.810;13.022;2023-05-10T17:26:12;14.00;99.90
14397;DHT22;50653;47.810;13.022;2023-05-10T17:28:38;13.90;99.90
14397;DHT22;50653;47.810;13.022;2023-05-10T17:31:03;14.20;99.90
14397;DHT22;50653;47.810;13.022;2023-05-10T17:33:29;14.60;99.90
14397;DHT22;50653;47.810;13.022;2023-05-10T17:35:55;14.40;99.90
14397;DHT22;50653;47.810;13.022;2023-05-10T17:38:21;14.30;99.90
14397;DHT22;50653;47.810;13.022;2023-05-10T17:40:47;14.50;99.90
14397;DHT22;50653;47.810;13.022;2023-05-10T17:43:12;14.40;99.90
14397;DHT22;50653;47.810;13.022;2023-05-10T17:45:38;14.20;99.90
14397;DHT22;50653;47.810;13.022;2023-05-10T17:48:04;14.10;99.90
14397;DHT22;50653;47.810;13.022;2023-05-10T17:50:29;14.30;99.90
14397;DHT22;50653;47.810;13.022;2023-05-10T17:52:56;14.20;99.90
14397;DHT22;50653;47.810;13.022;2023-05-10T17:55:22;14.50;99.90
14397;DHT22;50653;47.810;13.022;2023-05-10T17:57:48;14.40;99.90
14397;DHT22;50653;47.810;13.022;2023-05-10T18:00:14;14.50;99.90
14397;DHT22;50653;47.810;13.022;2023-05-10T18:02:40;14.40;99.90
14397;DHT22;50653;47.810;13.022;2023-05-10T18:05:05;14.10;99.90
14397;DHT22;50653;47.810;13.022;2023-05-10T18:07:32;14.50;99.90
14397;DHT22;50653;47.810;13.022;2023-05-10T18:09:57;14.60;99.90
14397;DHT22;50653;47.810;13.022;2023-05-10T18:12:23;14.50;99.90
14397;DHT22;50653;47.810;13.022;2023-05-10T18:14:49;14.10;99.90
14397;DHT22;50653;47.810;13.022;2023-05-10T18:17:15;13.80;99.90
14397;DHT22;50653;47.810;13.022;2023-05-10T18:19:40;13.50;99.90
14397;DHT22;50653;47.810;13.022;2023-05-10T18:22:06;13.30;99.90